Brunswick, Michigan
Current Conditions -  °F | °C
As of 5:14 PM on Friday 24 Oct 2014 (Local Time) from KFFX Reporting Station
Overcast Overcast  
Wind Chill: 53°   Ceiling: 900
Heat Index: 53°   Visibility: 10mi
Dew Point: 49°   Wind: 8mph
Humidity: 87%   Direction: 240°WSW
Pressure: 29.96"   Gusts: NA
Location:  43.452°N, 86.1285°W
Report Text: KFFX 242114Z AUTO 24007KT 10SM OVC009 12/10 A2996 RMK AO2 T01180097
Loading
Personal Weather Stations






























Interactive Weather Map
Tropical Storm Tracking
New forecast layout! Learn more

10-Day Weather Forecast

Advertisements
Track Severe Weather on mobile